Time;durP1;ratioP1;P1;durP2;ratioP2;P2;SDS_P1;SDS_P2;PMS_P1;PMS_P2;Temp;Humidity;BMP_temperature;BMP_pressure;BME280_temperature;BME280_humidity;BME280_pressure;Samples;Min_cycle;Max_cycle;Signal;HPM_P1;HPM_P2
2024/03/15 00:00:25;;;;;;;4.05;2.85;;;;;;;13.91;41.54;100442.84;4943181;28;20395;-72
2024/03/15 00:02:54;;;;;;;3.78;2.40;;;;;;;13.89;41.04;100444.91;4940676;28;20454;-72
2024/03/15 00:05:24;;;;;;;6.03;2.80;;;;;;;13.86;41.31;100448.00;4948541;28;20532;-73
2024/03/15 00:07:52;;;;;;;5.05;2.72;;;;;;;13.82;41.67;100446.59;4938313;28;20506;-73
2024/03/15 00:10:20;;;;;;;4.65;2.30;;;;;;;13.79;41.27;100439.53;4944992;28;20046;-73
2024/03/15 00:12:49;;;;;;;4.78;2.70;;;;;;;13.75;41.18;100443.66;4942630;28;20046;-73
2024/03/15 00:15:18;;;;;;;3.67;2.58;;;;;;;13.73;41.58;100442.94;4949827;28;20121;-73
2024/03/15 00:17:46;;;;;;;3.45;2.40;;;;;;;13.71;41.99;100450.50;4936577;28;20054;-73
2024/03/15 00:20:14;;;;;;;3.83;2.30;;;;;;;13.69;41.46;100446.22;4949218;28;20054;-73
2024/03/15 00:22:43;;;;;;;4.13;2.40;;;;;;;13.67;41.50;100437.25;4952683;28;20042;-72
2024/03/15 00:25:13;;;;;;;4.40;2.58;;;;;;;13.63;41.53;100443.06;4948713;28;20129;-72
2024/03/15 00:27:42;;;;;;;3.60;2.47;;;;;;;13.61;42.02;100441.53;4954475;28;20395;-72
2024/03/15 00:30:10;;;;;;;4.20;2.40;;;;;;;13.60;41.60;100440.66;4948197;28;20406;-72
2024/03/15 00:32:39;;;;;;;4.68;2.58;;;;;;;13.56;41.64;100439.25;4950279;28;20043;-72
2024/03/15 00:35:08;;;;;;;4.13;2.35;;;;;;;13.56;41.77;100443.84;4952099;28;20050;-72
2024/03/15 00:37:36;;;;;;;4.85;2.70;;;;;;;13.54;41.86;100443.16;4948566;28;20506;-72
2024/03/15 00:40:05;;;;;;;4.00;2.50;;;;;;;13.53;42.33;100445.03;4934953;28;20045;-72
2024/03/15 00:42:34;;;;;;;4.03;2.42;;;;;;;13.51;42.08;100441.63;4941511;28;20046;-72
2024/03/15 00:45:02;;;;;;;4.05;2.58;;;;;;;13.50;41.94;100445.38;4943786;28;20047;-72
2024/03/15 00:47:35;;;;;;;4.75;2.80;;;;;;;13.46;42.01;100441.22;4945692;28;20057;-72
2024/03/15 00:50:04;;;;;;;4.63;2.58;;;;;;;13.48;42.24;100438.31;4933174;28;20129;-72
2024/03/15 00:52:32;;;;;;;4.28;2.67;;;;;;;13.46;42.48;100434.88;4948965;28;20062;-72
2024/03/15 00:55:00;;;;;;;4.93;2.70;;;;;;;13.45;42.23;100428.50;4948861;28;20038;-72
2024/03/15 00:57:28;;;;;;;4.53;2.70;;;;;;;13.45;42.25;100433.13;4948327;28;20410;-72
2024/03/15 00:59:56;;;;;;;3.95;2.58;;;;;;;13.43;42.25;100429.72;4948354;28;20148;-72
2024/03/15 01:02:24;;;;;;;4.13;2.38;;;;;;;13.42;42.50;100434.34;4949602;28;20046;-72
2024/03/15 01:04:57;;;;;;;3.97;2.75;;;;;;;13.41;42.21;100429.00;4955148;28;20058;-72
2024/03/15 01:07:25;;;;;;;3.80;2.58;;;;;;;13.39;42.22;100429.16;4951868;28;20134;-72
2024/03/15 01:09:53;;;;;;;4.43;2.58;;;;;;;13.40;42.25;100430.88;4952376;28;20043;-72
2024/03/15 01:12:22;;;;;;;3.83;2.50;;;;;;;13.39;42.77;100426.41;4955501;28;20070;-72
2024/03/15 01:14:50;;;;;;;4.13;2.70;;;;;;;13.38;42.42;100419.19;4951877;28;20055;-72
2024/03/15 01:17:18;;;;;;;5.10;2.65;;;;;;;13.37;42.67;100414.72;4951978;28;20478;-73
2024/03/15 01:19:46;;;;;;;5.25;2.83;;;;;;;13.36;42.59;100421.25;4946709;28;20525;-72
2024/03/15 01:22:14;;;;;;;3.97;2.45;;;;;;;13.35;42.93;100407.69;4948782;28;20129;-72
2024/03/15 01:24:42;;;;;;;4.30;2.60;;;;;;;13.32;42.38;100408.84;4946506;28;20129;-72
2024/03/15 01:27:10;;;;;;;4.18;2.80;;;;;;;13.31;42.55;100400.75;4947530;28;20442;-72
2024/03/15 01:29:38;;;;;;;4.43;2.78;;;;;;;13.29;42.42;100411.91;4950677;28;20057;-72
2024/03/15 01:32:06;;;;;;;4.03;2.72;;;;;;;13.29;42.56;100405.56;4945978;28;20441;-72
2024/03/15 01:34:35;;;;;;;4.35;2.50;;;;;;;13.26;42.81;100417.75;4952826;28;20054;-71
2024/03/15 01:37:03;;;;;;;3.53;2.38;;;;;;;13.25;42.58;100422.41;4944667;28;20070;-72
2024/03/15 01:39:31;;;;;;;4.00;2.50;;;;;;;13.24;42.68;100417.91;4953685;28;20056;-72
2024/03/15 01:41:59;;;;;;;3.97;2.60;;;;;;;13.25;42.69;100416.03;4951496;28;20057;-72
2024/03/15 01:44:27;;;;;;;3.90;2.65;;;;;;;13.23;43.11;100424.44;4948951;28;20038;-72
2024/03/15 01:46:55;;;;;;;3.47;2.38;;;;;;;13.23;43.41;100420.81;4954753;28;20237;-72
2024/03/15 01:49:25;;;;;;;3.95;2.53;;;;;;;13.23;43.45;100409.84;4946572;28;20105;-72
2024/03/15 01:51:53;;;;;;;4.25;2.83;;;;;;;13.23;43.55;100407.94;4949168;28;20038;-72
2024/03/15 01:54:22;;;;;;;4.97;2.58;;;;;;;13.25;43.71;100402.28;4947535;28;20069;-71
2024/03/15 01:56:50;;;;;;;4.47;2.97;;;;;;;13.26;43.58;100406.75;4949178;28;20065;-72
2024/03/15 01:59:18;;;;;;;5.28;2.80;;;;;;;13.26;43.66;100401.28;4939010;28;20410;-72
2024/03/15 02:01:47;;;;;;;3.80;2.55;;;;;;;13.28;43.21;100395.63;4950092;28;20046;-72
2024/03/15 02:04:16;;;;;;;5.28;2.80;;;;;;;13.28;43.78;100401.97;4954559;28;20050;-71
2024/03/15 02:06:44;;;;;;;4.22;2.60;;;;;;;13.28;43.31;100401.13;4947202;28;20152;-72
2024/03/15 02:09:12;;;;;;;4.13;3.00;;;;;;;13.29;43.75;100391.81;4946188;28;20406;-72
2024/03/15 02:11:41;;;;;;;4.65;2.97;;;;;;;13.29;43.62;100389.06;4947560;28;20065;-72
2024/03/15 02:14:11;;;;;;;4.30;2.63;;;;;;;13.28;43.32;100396.47;4946305;28;20113;-72
2024/03/15 02:16:39;;;;;;;4.25;2.60;;;;;;;13.28;43.57;100401.13;4946094;28;20047;-72
2024/03/15 02:19:07;;;;;;;3.42;2.42;;;;;;;13.28;43.19;100395.63;4948319;28;20054;-72
2024/03/15 02:21:35;;;;;;;4.85;2.85;;;;;;;13.28;43.68;100392.88;4957671;28;20054;-72
2024/03/15 02:24:03;;;;;;;4.38;2.97;;;;;;;13.25;43.76;100392.16;4945375;28;20576;-72
2024/03/15 02:26:31;;;;;;;3.75;2.45;;;;;;;13.25;43.29;100394.91;4956574;28;20068;-72
2024/03/15 02:29:02;;;;;;;4.95;2.88;;;;;;;13.25;43.56;100394.03;4951442;28;20057;-72
2024/03/15 02:31:34;;;;;;;5.00;3.00;;;;;;;13.23;43.40;100394.19;4949500;28;20042;-72
2024/03/15 02:34:03;;;;;;;4.63;2.90;;;;;;;13.24;43.46;100398.69;4924155;28;20039;-73
2024/03/15 02:36:31;;;;;;;4.18;2.60;;;;;;;13.23;43.45;100393.34;4948156;28;20074;-72
2024/03/15 02:38:59;;;;;;;6.00;2.72;;;;;;;13.22;43.68;100384.22;4945362;28;20049;-72
2024/03/15 02:41:27;;;;;;;4.75;2.97;;;;;;;13.21;44.01;100385.25;4944526;28;20046;-72
2024/03/15 02:43:55;;;;;;;4.35;2.80;;;;;;;13.22;43.52;100386.13;4946580;28;20096;-72
2024/03/15 02:46:23;;;;;;;4.90;3.10;;;;;;;13.21;43.88;100389.88;4953936;28;20097;-73
2024/03/15 02:48:51;;;;;;;4.45;2.85;;;;;;;13.22;44.16;100392.47;4950407;28;20583;-72
2024/03/15 02:51:19;;;;;;;5.07;2.70;;;;;;;13.22;43.58;100397.09;4945071;28;20046;-72
2024/03/15 02:53:47;;;;;;;4.13;2.63;;;;;;;13.21;43.67;100392.63;4944390;28;20058;-72
2024/03/15 02:56:15;;;;;;;4.53;2.83;;;;;;;13.23;43.97;100398.84;4949950;28;20495;-72
2024/03/15 02:58:46;;;;;;;4.78;2.65;;;;;;;13.23;44.16;100396.94;4952901;28;20068;-71
2024/03/15 03:01:14;;;;;;;4.05;2.95;;;;;;;13.24;43.65;100400.56;4949091;28;20050;-72
2024/03/15 03:03:42;;;;;;;5.22;2.67;;;;;;;13.24;43.73;100395.06;4950115;28;20050;-72
2024/03/15 03:06:10;;;;;;;4.10;2.55;;;;;;;13.25;43.72;100391.31;4942130;28;20461;-72
2024/03/15 03:08:38;;;;;;;4.68;2.90;;;;;;;13.25;44.13;100391.31;4951642;28;20055;-73
2024/03/15 03:11:07;;;;;;;3.92;2.10;;;;;;;13.26;44.07;100404.03;4948853;28;20263;-72
2024/03/15 03:13:35;;;;;;;5.85;2.55;;;;;;;13.25;43.68;100400.41;4954842;28;20126;-72
2024/03/15 03:16:03;;;;;;;3.88;2.17;;;;;;;13.26;43.75;100404.03;4947466;28;20046;-72
2024/03/15 03:18:31;;;;;;;3.92;2.47;;;;;;;13.26;43.97;100393.03;4953290;28;20050;-72
2024/03/15 03:20:59;;;;;;;5.47;2.45;;;;;;;13.27;44.28;100403.00;4953444;28;20740;-71
2024/03/15 03:23:27;;;;;;;4.80;2.47;;;;;;;13.26;44.20;100412.25;4945110;28;20101;-72
2024/03/15 03:25:55;;;;;;;3.40;2.35;;;;;;;13.27;44.22;100404.88;4941778;28;20125;-72
2024/03/15 03:28:23;;;;;;;3.92;2.47;;;;;;;13.27;44.18;100404.88;4945716;28;20516;-72
2024/03/15 03:30:51;;;;;;;4.03;2.45;;;;;;;13.27;44.07;100405.75;4938847;28;20050;-72
2024/03/15 03:33:19;;;;;;;5.03;2.85;;;;;;;13.27;43.72;100394.75;4946673;28;20043;-72
2024/03/15 03:35:47;;;;;;;4.30;2.47;;;;;;;13.27;43.98;100408.50;4945484;28;20050;-72
2024/03/15 03:38:15;;;;;;;4.47;2.47;;;;;;;13.27;43.63;100404.88;4948592;28;20113;-72
2024/03/15 03:40:43;;;;;;;4.57;2.65;;;;;;;13.27;43.81;100396.63;4951908;28;20557;-72
2024/03/15 03:43:11;;;;;;;3.65;2.58;;;;;;;13.26;43.68;100401.28;4948292;28;20050;-72
2024/03/15 03:45:42;;;;;;;3.42;2.20;;;;;;;13.25;43.98;100397.66;4946162;28;20035;-72
2024/03/15 03:48:10;;;;;;;4.13;2.40;;;;;;;13.26;44.22;100404.03;4944083;28;20371;-71
2024/03/15 03:50:39;;;;;;;5.28;2.40;;;;;;;13.24;43.67;100395.94;4947606;28;20406;-72
2024/03/15 03:53:06;;;;;;;4.25;2.50;;;;;;;13.25;43.78;100394.91;4940421;28;20109;-71
2024/03/15 03:55:34;;;;;;;5.28;2.45;;;;;;;13.25;43.69;100400.41;4947624;28;20046;-72
2024/03/15 03:58:02;;;;;;;4.95;2.30;;;;;;;13.25;43.77;100396.78;4950728;28;20467;-72
2024/03/15 04:00:33;;;;;;;4.22;2.47;;;;;;;13.26;44.18;100390.28;4947485;28;20517;-72
2024/03/15 04:03:02;;;;;;;3.55;2.40;;;;;;;13.24;44.29;100393.19;4951502;28;20042;-72
2024/03/15 04:05:30;;;;;;;4.57;2.42;;;;;;;13.25;44.00;100385.81;4944212;28;20070;-72
2024/03/15 04:07:59;;;;;;;5.28;2.58;;;;;;;13.25;43.69;100381.16;4947203;28;20125;-72
2024/03/15 04:10:27;;;;;;;4.13;2.38;;;;;;;13.25;43.85;100388.56;4952520;28;20510;-72
2024/03/15 04:12:56;;;;;;;5.50;2.50;;;;;;;13.25;43.65;100391.31;4950388;28;20097;-72
2024/03/15 04:15:24;;;;;;;4.03;2.20;;;;;;;13.25;43.71;100383.06;4951461;28;20042;-72
2024/03/15 04:17:58;;;;;;;3.47;2.40;;;;;;;13.25;43.60;100391.31;4949870;28;20142;-72
2024/03/15 04:20:27;;;;;;;5.00;2.95;;;;;;;13.25;44.10;100385.81;4943157;28;20073;-72
2024/03/15 04:22:57;;;;;;;4.18;2.20;;;;;;;13.24;43.59;100384.94;4949602;28;20146;-72
2024/03/15 04:25:25;;;;;;;3.70;2.25;;;;;;;13.26;43.59;100382.03;4941407;28;20514;-71
2024/03/15 04:27:54;;;;;;;3.80;2.20;;;;;;;13.25;43.46;100383.06;4943856;28;20042;-72
2024/03/15 04:30:23;;;;;;;3.65;1.92;;;;;;;13.25;43.76;100385.81;4936870;28;20046;-72
2024/03/15 04:32:53;;;;;;;4.43;2.40;;;;;;;13.25;43.64;100385.81;4950293;28;20050;-72
2024/03/15 04:35:22;;;;;;;4.22;2.38;;;;;;;13.25;43.75;100388.56;4949127;28;20393;-72
2024/03/15 04:37:51;;;;;;;4.18;2.15;;;;;;;13.25;43.66;100391.31;4949612;28;20150;-71
2024/03/15 04:40:19;;;;;;;4.43;2.60;;;;;;;13.25;43.64;100391.31;4951490;28;20097;-72
2024/03/15 04:42:47;;;;;;;3.50;2.25;;;;;;;13.24;43.72;100390.44;4948373;28;20078;-72
2024/03/15 04:45:17;;;;;;;3.30;2.13;;;;;;;13.25;44.01;100394.91;4950519;28;20043;-72
2024/03/15 04:47:45;;;;;;;4.82;2.50;;;;;;;13.24;43.89;100384.94;4949251;28;20058;-72
2024/03/15 04:50:15;;;;;;;4.75;2.15;;;;;;;13.24;44.04;100390.44;4946980;28;20499;-72
2024/03/15 04:52:43;;;;;;;3.47;2.08;;;;;;;13.25;44.08;100392.16;4946031;28;20046;-72
2024/03/15 04:55:13;;;;;;;5.00;2.10;;;;;;;13.24;43.61;100393.19;4954905;28;20521;-72
2024/03/15 04:57:41;;;;;;;3.30;2.10;;;;;;;13.24;43.72;100389.56;4950689;28;20096;-71
2024/03/15 05:00:17;;;;;;;5.05;2.00;;;;;;;13.25;43.96;100397.66;4953409;28;20187;-72
2024/03/15 05:02:47;;;;;;;4.43;2.15;;;;;;;13.25;44.10;100394.03;4958720;28;20051;-72
2024/03/15 05:05:16;;;;;;;3.40;2.05;;;;;;;13.26;43.77;100393.03;4946921;28;20129;-72
2024/03/15 05:07:46;;;;;;;4.05;2.03;;;;;;;13.26;44.25;100395.78;4948045;28;20089;-72
2024/03/15 05:10:16;;;;;;;3.70;1.95;;;;;;;13.27;43.82;100400.25;4953635;28;20042;-72
2024/03/15 05:12:46;;;;;;;3.33;1.90;;;;;;;13.27;44.21;100397.50;4946968;28;20125;-72
2024/03/15 05:15:14;;;;;;;4.70;1.80;;;;;;;13.28;43.62;100401.97;4947150;28;20130;-72
2024/03/15 05:17:42;;;;;;;4.05;1.90;;;;;;;13.29;44.16;100400.94;4949679;28;20049;-71
2024/03/15 05:20:12;;;;;;;4.88;1.90;;;;;;;13.30;43.77;100396.28;4952251;28;20133;-72
2024/03/15 05:22:43;;;;;;;4.10;2.30;;;;;;;13.29;44.10;100398.19;4951409;28;20134;-72
2024/03/15 05:25:14;;;;;;;4.22;2.10;;;;;;;13.30;44.23;100396.28;4953409;28;20054;-72
2024/03/15 05:27:42;;;;;;;4.10;1.70;;;;;;;13.30;43.74;100390.78;4953733;28;20038;-72
2024/03/15 05:30:11;;;;;;;3.65;1.90;;;;;;;13.31;44.21;100392.53;4947660;28;20058;-72
2024/03/15 05:32:40;;;;;;;5.45;1.90;;;;;;;13.31;43.82;100398.03;4951529;28;20042;-72
2024/03/15 05:35:08;;;;;;;3.75;1.92;;;;;;;13.31;43.76;100398.88;4953413;28;20073;-72
2024/03/15 05:37:36;;;;;;;5.78;2.03;;;;;;;13.31;44.16;100403.50;4946353;28;20050;-72
2024/03/15 05:40:05;;;;;;;4.80;2.25;;;;;;;13.32;44.09;100405.25;4955760;28;20062;-72
2024/03/15 05:42:33;;;;;;;3.97;1.92;;;;;;;13.31;44.22;100407.13;4953273;28;20046;-72
2024/03/15 05:45:03;;;;;;;5.05;2.17;;;;;;;13.31;43.82;100407.13;4948517;28;20054;-71
2024/03/15 05:47:32;;;;;;;3.65;2.20;;;;;;;13.33;44.33;100406.97;4955414;28;20522;-72
2024/03/15 05:50:02;;;;;;;5.00;2.05;;;;;;;13.33;44.32;100407.84;4937715;28;20441;-72
2024/03/15 05:52:32;;;;;;;4.10;1.85;;;;;;;13.33;43.81;100413.31;4951096;28;20488;-72
2024/03/15 05:55:00;;;;;;;3.85;2.00;;;;;;;13.34;44.24;100406.81;4950224;28;20540;-71
2024/03/15 05:57:29;;;;;;;5.00;2.50;;;;;;;13.33;44.24;100404.22;4949297;28;20093;-72
2024/03/15 05:59:58;;;;;;;3.08;1.85;;;;;;;13.34;43.74;100414.19;4950885;28;20050;-71
2024/03/15 06:02:26;;;;;;;3.75;2.00;;;;;;;13.34;44.31;100417.81;4947655;28;20053;-70
2024/03/15 06:04:54;;;;;;;3.67;2.25;;;;;;;13.35;43.90;100415.91;4950829;28;20046;-70
2024/03/15 06:07:22;;;;;;;3.67;2.00;;;;;;;13.35;44.35;100418.66;4954546;28;20085;-73
2024/03/15 06:09:50;;;;;;;3.22;1.95;;;;;;;13.36;44.35;100420.41;4950986;28;20458;-74
2024/03/15 06:12:19;;;;;;;3.95;1.88;;;;;;;13.37;44.12;100416.59;4962110;28;20050;-74
2024/03/15 06:14:48;;;;;;;4.05;1.95;;;;;;;13.37;43.95;100424.84;4954045;28;20042;-74
2024/03/15 06:17:16;;;;;;;4.13;2.00;;;;;;;13.37;43.90;100431.19;4955578;28;20088;-74
2024/03/15 06:19:44;;;;;;;3.83;2.20;;;;;;;13.38;43.96;100426.56;4954756;28;20128;-71
2024/03/15 06:22:13;;;;;;;4.30;2.05;;;;;;;13.38;43.93;100426.56;4954546;28;20126;-71
2024/03/15 06:24:43;;;;;;;3.65;2.20;;;;;;;13.39;44.25;100428.31;4936484;28;20038;-71
2024/03/15 06:27:13;;;;;;;3.33;1.77;;;;;;;13.39;44.48;100440.16;4950571;28;20069;-74
2024/03/15 06:29:43;;;;;;;4.47;2.13;;;;;;;13.40;43.93;100441.88;4951138;28;20050;-74
2024/03/15 06:32:15;;;;;;;3.45;1.83;;;;;;;13.40;44.07;100444.63;4947528;28;20047;-74
2024/03/15 06:34:44;;;;;;;3.97;1.97;;;;;;;13.39;44.29;100439.28;4953812;28;20043;-73
2024/03/15 06:37:14;;;;;;;4.57;2.10;;;;;;;13.41;44.02;100440.00;4953099;28;20046;-74
2024/03/15 06:40:01;;;;;;;3.65;1.90;;;;;;;13.41;44.00;100440.00;4954028;28;20509;-74
2024/03/15 06:42:48;;;;;;;3.78;2.15;;;;;;;13.40;44.39;100441.03;4933935;28;20047;-74
2024/03/15 06:45:36;;;;;;;3.58;1.63;;;;;;;13.40;44.24;100439.13;4959010;28;20151;-74
2024/03/15 06:48:06;;;;;;;3.08;1.95;;;;;;;13.40;44.59;100430.03;4957221;28;20101;-74
2024/03/15 06:50:48;;;;;;;4.13;2.10;;;;;;;13.42;44.22;100439.84;4954257;28;20046;-74
2024/03/15 06:53:17;;;;;;;4.20;2.17;;;;;;;13.40;44.59;100446.50;4949357;28;20042;-74
2024/03/15 06:55:45;;;;;;;3.70;1.90;;;;;;;13.43;44.66;100449.81;4951087;28;20454;-76
2024/03/15 06:58:13;;;;;;;3.70;2.13;;;;;;;13.43;44.20;100449.81;4945319;28;20053;-75
2024/03/15 07:00:50;;;;;;;3.40;1.92;;;;;;;13.44;44.70;100448.78;4948617;28;20050;-72
2024/03/15 07:03:18;;;;;;;4.03;2.17;;;;;;;13.47;44.33;100455.84;4950650;28;20136;-72
2024/03/15 07:05:47;;;;;;;4.18;2.08;;;;;;;13.47;44.31;100455.84;4952788;28;20509;-72
2024/03/15 07:08:14;;;;;;;3.92;1.92;;;;;;;13.49;44.26;100468.41;4956054;28;20143;-72
2024/03/15 07:10:43;;;;;;;4.22;2.30;;;;;;;13.49;44.56;100457.41;4939342;28;20486;-72
2024/03/15 07:13:11;;;;;;;3.97;2.30;;;;;;;13.51;44.33;100457.25;4949783;28;20508;-71
2024/03/15 07:15:39;;;;;;;5.05;2.20;;;;;;;13.52;44.56;100459.84;4948683;28;20129;-72
2024/03/15 07:18:08;;;;;;;4.35;1.92;;;;;;;13.55;44.52;100458.63;4950166;28;20096;-72
2024/03/15 07:20:37;;;;;;;3.70;2.05;;;;;;;13.54;44.40;100468.75;4952113;28;20618;-72
2024/03/15 07:23:06;;;;;;;5.30;1.95;;;;;;;13.56;44.67;100461.25;4951683;28;20769;-71
2024/03/15 07:25:36;;;;;;;5.22;2.50;;;;;;;13.57;44.36;100462.97;4947289;28;20039;-72
2024/03/15 07:28:04;;;;;;;4.88;2.00;;;;;;;13.59;44.33;100473.81;4946856;28;20038;-71
2024/03/15 07:30:34;;;;;;;3.90;2.20;;;;;;;13.60;44.48;100472.81;4945849;28;20042;-72
2024/03/15 07:33:03;;;;;;;4.15;2.08;;;;;;;13.61;44.92;100480.03;4948144;28;20362;-71
2024/03/15 07:35:31;;;;;;;3.72;2.22;;;;;;;13.61;44.87;100494.59;4952036;28;20073;-71
2024/03/15 07:38:00;;;;;;;5.22;2.15;;;;;;;13.62;44.81;100484.47;4948882;28;20061;-71
2024/03/15 07:40:28;;;;;;;4.18;2.20;;;;;;;13.62;45.38;100490.84;4950275;28;20035;-71
2024/03/15 07:42:56;;;;;;;6.45;2.22;;;;;;;13.62;45.55;100500.97;4942548;28;20534;-72
2024/03/15 07:45:24;;;;;;;4.15;2.40;;;;;;;13.61;45.27;100496.53;4943162;28;20066;-72
2024/03/15 07:47:52;;;;;;;4.05;2.65;;;;;;;13.60;45.87;100492.06;4949561;28;20423;-71
2024/03/15 07:50:20;;;;;;;4.72;2.58;;;;;;;13.59;45.91;100490.31;4946044;28;20454;-71
2024/03/15 07:52:49;;;;;;;4.15;2.40;;;;;;;13.57;45.76;100500.59;4943213;28;20070;-71
2024/03/15 07:58:06;;;;;;;3.80;2.47;;;;;;;13.54;45.88;100503.63;4972410;28;20068;-72
2024/03/15 08:00:34;;;;;;;4.63;2.50;;;;;;;13.54;46.07;100507.25;4931639;28;20039;-73
2024/03/15 08:03:03;;;;;;;4.60;2.60;;;;;;;13.54;46.66;100501.75;4936294;28;20461;-73
2024/03/15 08:05:33;;;;;;;4.60;2.50;;;;;;;13.53;46.45;100499.19;4914445;29;20186;-73
2024/03/15 08:08:05;;;;;;;6.57;2.60;;;;;;;13.52;46.82;100503.81;4936759;28;20077;-73
2024/03/15 08:10:33;;;;;;;5.20;2.42;;;;;;;13.52;46.68;100505.72;4946331;28;20042;-72
2024/03/15 08:13:01;;;;;;;4.97;2.78;;;;;;;13.51;47.13;100503.97;4944950;28;20101;-73
2024/03/15 08:15:32;;;;;;;4.93;2.72;;;;;;;13.51;47.22;100501.22;4939208;28;20047;-73
2024/03/15 08:18:01;;;;;;;5.97;2.83;;;;;;;13.50;46.70;100510.50;4915073;28;20047;-72
2024/03/15 08:20:29;;;;;;;6.63;2.80;;;;;;;13.51;47.16;100501.22;4934842;29;20043;-72
2024/03/15 08:22:57;;;;;;;5.45;2.80;;;;;;;13.50;47.48;100499.50;4947155;28;20066;-72
2024/03/15 08:25:25;;;;;;;4.85;2.65;;;;;;;13.49;47.10;100501.38;4937758;28;20046;-72
2024/03/15 08:27:53;;;;;;;5.15;2.75;;;;;;;13.51;47.20;100501.22;4937455;28;20125;-73
2024/03/15 08:30:23;;;;;;;5.70;3.13;;;;;;;13.51;47.80;100498.47;4938100;28;20526;-73
2024/03/15 08:32:51;;;;;;;7.03;3.22;;;;;;;13.51;47.48;100496.59;4938609;28;20063;-73
2024/03/15 08:35:19;;;;;;;5.00;2.80;;;;;;;13.52;47.47;100512.06;4938158;28;20171;-73
2024/03/15 08:37:47;;;;;;;4.15;2.53;;;;;;;13.53;47.82;100505.53;4933947;29;20044;-73
2024/03/15 08:40:16;;;;;;;5.35;2.67;;;;;;;13.53;47.58;100502.78;4915119;29;20039;-73
2024/03/15 08:42:45;;;;;;;3.67;2.00;;;;;;;13.54;47.71;100511.88;4936680;28;20049;-73
2024/03/15 08:45:14;;;;;;;4.57;2.17;;;;;;;13.55;47.85;100510.88;4934408;28;20133;-72
2024/03/15 08:47:43;;;;;;;5.50;2.10;;;;;;;13.55;47.55;100508.13;4935180;28;20125;-73
2024/03/15 08:50:26;;;;;;;;;;;;;;;13.29;48.80;100515.50;4928137;28;20518;-72
2024/03/15 08:52:55;;;;;;;2.80;1.83;;;;;;;13.53;47.65;100511.03;4952137;28;19923;-73
2024/03/15 08:55:23;;;;;;;3.67;2.03;;;;;;;13.57;47.53;100509.72;4934209;28;20047;-72
2024/03/15 08:57:50;;;;;;;3.60;2.00;;;;;;;13.58;48.03;100508.69;4934971;28;20051;-71
2024/03/15 09:00:19;;;;;;;3.25;1.90;;;;;;;13.61;47.82;100516.59;4938445;28;20383;-73
2024/03/15 09:02:47;;;;;;;3.60;2.15;;;;;;;13.63;48.08;100514.56;4937105;28;20106;-73
2024/03/15 09:05:15;;;;;;;3.75;2.10;;;;;;;13.65;48.04;100513.53;4940459;28;20054;-71
2024/03/15 09:07:45;;;;;;;4.45;2.47;;;;;;;13.67;47.73;100522.50;4937296;28;20071;-71
2024/03/15 09:10:14;;;;;;;3.83;2.08;;;;;;;13.69;48.18;100520.47;4929935;28;20066;-72
2024/03/15 09:12:43;;;;;;;4.38;2.17;;;;;;;13.71;48.02;100519.25;4934480;28;20043;-71
2024/03/15 09:15:12;;;;;;;3.70;2.28;;;;;;;13.73;47.74;100519.97;4933361;28;20046;-72
2024/03/15 09:17:40;;;;;;;4.75;2.30;;;;;;;13.77;47.87;100515.00;4940260;28;20050;-72
2024/03/15 09:20:18;;;;;;;4.50;2.40;;;;;;;13.78;48.23;100513.94;4936659;28;20054;-72
2024/03/15 09:22:47;;;;;;;4.93;2.38;;;;;;;13.81;47.67;100513.63;4938086;28;20067;-71
2024/03/15 09:25:19;;;;;;;4.15;2.30;;;;;;;13.85;47.69;100512.28;4933538;28;20105;-72
2024/03/15 09:27:48;;;;;;;4.07;2.30;;;;;;;13.86;48.09;100503.03;4940614;28;20387;-72
2024/03/15 09:30:18;;;;;;;3.60;2.33;;;;;;;13.90;47.96;100507.16;4933364;28;20038;-72
2024/03/15 09:32:48;;;;;;;4.88;2.05;;;;;;;13.95;47.74;100507.50;4939087;28;20043;-70
2024/03/15 09:35:17;;;;;;;5.38;2.50;;;;;;;13.98;48.24;100502.56;4921358;28;20054;-72
2024/03/15 09:37:50;;;;;;;4.05;2.35;;;;;;;14.02;47.87;100511.34;4939660;28;20046;-72
2024/03/15 09:40:19;;;;;;;4.63;2.28;;;;;;;14.06;47.74;100503.59;4942443;28;20043;-71
2024/03/15 09:42:48;;;;;;;3.38;2.30;;;;;;;14.09;48.20;100504.16;4939398;28;20588;-72
2024/03/15 09:45:17;;;;;;;4.30;2.35;;;;;;;14.13;48.01;100505.53;4939331;28;20073;-72
2024/03/15 09:47:45;;;;;;;3.58;2.10;;;;;;;14.18;48.17;100500.41;4939256;28;20453;-72
2024/03/15 09:50:16;;;;;;;4.07;2.60;;;;;;;14.23;47.93;100498.00;4936769;28;20461;-71
2024/03/15 09:52:44;;;;;;;4.53;2.60;;;;;;;14.27;48.21;100496.63;4922322;28;20039;-72
2024/03/15 09:55:13;;;;;;;4.30;2.50;;;;;;;14.34;48.07;100500.47;4938332;28;20105;-72
2024/03/15 09:57:43;;;;;;;5.68;2.40;;;;;;;14.39;47.66;100498.06;4937582;28;20046;-71
2024/03/15 10:00:13;;;;;;;3.88;2.22;;;;;;;14.45;47.60;100499.25;4934530;28;20122;-71
2024/03/15 10:02:44;;;;;;;4.03;2.13;;;;;;;14.50;47.66;100505.19;4921887;28;20054;-71
2024/03/15 10:05:12;;;;;;;5.25;1.98;;;;;;;14.54;47.59;100506.53;4941118;28;20046;-72
2024/03/15 10:07:41;;;;;;;3.75;1.95;;;;;;;14.59;47.45;100498.66;4945847;28;20154;-71
2024/03/15 10:10:10;;;;;;;2.95;1.70;;;;;;;14.65;46.79;100502.63;4943565;28;20197;-72
2024/03/15 10:12:39;;;;;;;3.90;1.67;;;;;;;14.68;46.76;100507.81;4935953;28;20506;-72
2024/03/15 10:15:10;;;;;;;3.10;1.80;;;;;;;14.71;46.28;100511.06;4940842;28;20043;-72
2024/03/15 10:17:39;;;;;;;4.18;1.60;;;;;;;14.72;46.54;100509.16;4937147;28;20047;-72
2024/03/15 10:20:10;;;;;;;2.80;1.30;;;;;;;14.76;46.12;100505.88;4939676;28;20055;-72
2024/03/15 10:22:40;;;;;;;2.83;1.42;;;;;;;14.73;46.14;100509.00;4923049;28;20510;-72
2024/03/15 10:25:10;;;;;;;2.13;1.20;;;;;;;14.79;45.99;100506.59;4938086;28;20039;-72
2024/03/15 10:27:38;;;;;;;3.60;1.42;;;;;;;14.76;45.92;100505.88;4953221;28;20465;-72
2024/03/15 10:30:09;;;;;;;2.42;1.33;;;;;;;14.80;45.66;100506.41;4939569;28;20190;-72
2024/03/15 10:32:37;;;;;;;2.15;1.50;;;;;;;14.77;45.72;100502.09;4936562;28;20062;-71
2024/03/15 10:35:06;;;;;;;2.47;1.45;;;;;;;14.81;45.75;100507.28;4939818;28;20081;-73
2024/03/15 10:37:34;;;;;;;2.88;1.23;;;;;;;14.81;45.88;100510.03;4941072;28;20502;-72
2024/03/15 10:40:04;;;;;;;2.03;1.17;;;;;;;14.82;45.32;100517.28;4939140;28;20039;-72
2024/03/15 10:42:32;;;;;;;2.63;1.50;;;;;;;14.84;45.62;100505.06;4937750;29;20039;-72
2024/03/15 10:45:01;;;;;;;4.15;1.52;;;;;;;14.85;45.34;100515.03;4940091;28;20042;-72
2024/03/15 10:47:29;;;;;;;3.65;1.40;;;;;;;14.88;45.68;100511.94;4943122;28;20047;-72
2024/03/15 10:49:57;;;;;;;3.53;1.58;;;;;;;14.90;45.53;100517.28;4939716;28;20038;-72
2024/03/15 10:52:25;;;;;;;3.08;1.38;;;;;;;14.90;45.27;100515.41;4940137;28;20514;-72
2024/03/15 10:54:53;;;;;;;2.55;1.10;;;;;;;14.93;44.93;100515.03;4938418;28;20292;-72
2024/03/15 10:57:21;;;;;;;3.60;1.30;;;;;;;14.93;44.42;100509.53;4939066;28;20110;-72
2024/03/15 10:59:49;;;;;;;2.05;1.10;;;;;;;14.94;44.60;100511.25;4938275;28;20041;-72
2024/03/15 11:02:17;;;;;;;3.90;1.20;;;;;;;14.96;44.89;100514.69;4937122;28;20537;-72
2024/03/15 11:04:45;;;;;;;2.28;0.90;;;;;;;14.98;44.86;100509.03;4937428;29;20051;-71
2024/03/15 11:07:15;;;;;;;1.67;0.80;;;;;;;14.99;44.75;100514.38;4954289;28;20051;-72
2024/03/15 11:09:43;;;;;;;2.13;0.95;;;;;;;15.01;44.75;100497.66;4943010;28;20510;-72
2024/03/15 11:12:12;;;;;;;2.97;1.10;;;;;;;15.04;44.31;100511.09;4945281;28;20043;-72
2024/03/15 11:14:41;;;;;;;2.72;1.20;;;;;;;15.05;44.13;100501.78;4946466;28;20069;-73
2024/03/15 11:17:09;;;;;;;2.58;1.10;;;;;;;15.07;44.68;100503.34;4939549;28;20053;-72
2024/03/15 11:19:41;;;;;;;2.63;1.10;;;;;;;15.13;44.36;100497.13;4934869;29;20581;-71
2024/03/15 11:22:19;;;;;;;1.73;0.90;;;;;;;15.17;44.44;100494.06;4920461;28;20538;-72
2024/03/15 11:24:50;;;;;;;1.90;1.08;;;;;;;15.21;44.92;100504.53;4938748;28;20050;-72
2024/03/15 11:27:18;;;;;;;2.05;0.90;;;;;;;15.27;44.12;100502.97;4938288;28;20035;-72
2024/03/15 11:29:48;;;;;;;3.05;1.00;;;;;;;15.32;44.08;100501.44;4939203;28;20113;-72
2024/03/15 11:32:16;;;;;;;2.08;1.00;;;;;;;15.36;44.27;100496.44;4934283;28;20403;-72
2024/03/15 11:34:44;;;;;;;1.75;0.85;;;;;;;15.41;43.67;100494.06;4935657;28;20051;-72